Aviation Digital Data Service (ADDS)

Output produced by TAFs form (2155 UTC 27 May 2015)
found at http://aviationweather.gov/adds/tafs/
 
KROW 271738Z 2718/2818 15009KT P6SM BKN250 
     FM272000 16013G21KT P6SM BKN250 
     FM280100 16010KT P6SM VCSH SCT050 BKN200 
     FM281000 17006KT P6SM OVC008 
     FM281600 15009KT P6SM SCT010 SCT150